sensor_id;sensor_type;location;lat;lon;timestamp;P1;durP1;ratioP1;P2;durP2;ratioP2
63005;SDS011;53704;52.532;6.426;2023-07-02T00:01:44;3.65;;;2.55;;
63005;SDS011;53704;52.532;6.426;2023-07-02T00:04:09;7.85;;;2.90;;
63005;SDS011;53704;52.532;6.426;2023-07-02T00:06:38;5.60;;;2.90;;
63005;SDS011;53704;52.532;6.426;2023-07-02T00:09:06;4.88;;;2.58;;
63005;SDS011;53704;52.532;6.426;2023-07-02T00:11:32;6.82;;;2.85;;
63005;SDS011;53704;52.532;6.426;2023-07-02T00:13:57;7.90;;;2.90;;
63005;SDS011;53704;52.532;6.426;2023-07-02T00:16:23;5.57;;;2.70;;
63005;SDS011;53704;52.532;6.426;2023-07-02T00:18:49;4.07;;;2.88;;
63005;SDS011;53704;52.532;6.426;2023-07-02T00:21:20;5.25;;;2.55;;
63005;SDS011;53704;52.532;6.426;2023-07-02T00:23:47;5.82;;;2.80;;
63005;SDS011;53704;52.532;6.426;2023-07-02T00:26:13;15.07;;;2.85;;
63005;SDS011;53704;52.532;6.426;2023-07-02T00:28:38;3.92;;;2.33;;
63005;SDS011;53704;52.532;6.426;2023-07-02T00:31:04;8.38;;;2.60;;
63005;SDS011;53704;52.532;6.426;2023-07-02T00:33:31;6.30;;;2.40;;
63005;SDS011;53704;52.532;6.426;2023-07-02T00:35:57;3.83;;;2.45;;
63005;SDS011;53704;52.532;6.426;2023-07-02T00:38:25;4.45;;;2.53;;
63005;SDS011;53704;52.532;6.426;2023-07-02T00:40:51;2.42;;;2.33;;
63005;SDS011;53704;52.532;6.426;2023-07-02T00:43:16;4.97;;;3.08;;
63005;SDS011;53704;52.532;6.426;2023-07-02T00:45:42;3.75;;;3.05;;
63005;SDS011;53704;52.532;6.426;2023-07-02T00:48:07;4.00;;;2.50;;
63005;SDS011;53704;52.532;6.426;2023-07-02T00:50:33;8.45;;;3.15;;
63005;SDS011;53704;52.532;6.426;2023-07-02T00:52:58;5.93;;;2.53;;
63005;SDS011;53704;52.532;6.426;2023-07-02T00:55:24;4.30;;;3.33;;
63005;SDS011;53704;52.532;6.426;2023-07-02T00:57:50;7.70;;;3.72;;
63005;SDS011;53704;52.532;6.426;2023-07-02T01:00:16;11.55;;;4.03;;
63005;SDS011;53704;52.532;6.426;2023-07-02T01:02:42;12.88;;;3.95;;
63005;SDS011;53704;52.532;6.426;2023-07-02T01:05:09;9.15;;;4.40;;
63005;SDS011;53704;52.532;6.426;2023-07-02T01:07:41;6.22;;;4.35;;
63005;SDS011;53704;52.532;6.426;2023-07-02T01:10:06;14.68;;;6.03;;
63005;SDS011;53704;52.532;6.426;2023-07-02T01:12:32;14.20;;;5.60;;
63005;SDS011;53704;52.532;6.426;2023-07-02T01:15:00;24.73;;;6.00;;
63005;SDS011;53704;52.532;6.426;2023-07-02T01:17:28;17.75;;;6.38;;
63005;SDS011;53704;52.532;6.426;2023-07-02T01:20:02;15.57;;;5.88;;
63005;SDS011;53704;52.532;6.426;2023-07-02T01:22:30;19.73;;;6.97;;
63005;SDS011;53704;52.532;6.426;2023-07-02T01:24:56;21.20;;;8.13;;
63005;SDS011;53704;52.532;6.426;2023-07-02T01:27:22;19.90;;;7.72;;
63005;SDS011;53704;52.532;6.426;2023-07-02T01:29:50;18.10;;;7.40;;
63005;SDS011;53704;52.532;6.426;2023-07-02T01:32:16;28.40;;;8.05;;
63005;SDS011;53704;52.532;6.426;2023-07-02T01:34:42;26.00;;;8.65;;
63005;SDS011;53704;52.532;6.426;2023-07-02T01:37:14;22.75;;;8.55;;
63005;SDS011;53704;52.532;6.426;2023-07-02T01:39:40;19.67;;;8.73;;
63005;SDS011;53704;52.532;6.426;2023-07-02T01:42:15;27.35;;;9.18;;
63005;SDS011;53704;52.532;6.426;2023-07-02T01:44:43;33.22;;;9.13;;
63005;SDS011;53704;52.532;6.426;2023-07-02T01:47:09;24.25;;;9.52;;
63005;SDS011;53704;52.532;6.426;2023-07-02T01:49:34;35.08;;;10.13;;
63005;SDS011;53704;52.532;6.426;2023-07-02T01:52:01;27.42;;;9.40;;
63005;SDS011;53704;52.532;6.426;2023-07-02T01:54:27;30.25;;;9.13;;
63005;SDS011;53704;52.532;6.426;2023-07-02T01:56:53;25.30;;;9.82;;
63005;SDS011;53704;52.532;6.426;2023-07-02T01:59:19;28.77;;;10.00;;
63005;SDS011;53704;52.532;6.426;2023-07-02T02:01:45;27.48;;;9.90;;
63005;SDS011;53704;52.532;6.426;2023-07-02T02:04:11;27.77;;;9.80;;
63005;SDS011;53704;52.532;6.426;2023-07-02T02:06:37;24.23;;;9.05;;
63005;SDS011;53704;52.532;6.426;2023-07-02T02:09:03;28.23;;;9.65;;
63005;SDS011;53704;52.532;6.426;2023-07-02T02:11:30;25.60;;;9.38;;
63005;SDS011;53704;52.532;6.426;2023-07-02T02:13:56;25.27;;;9.07;;
63005;SDS011;53704;52.532;6.426;2023-07-02T02:16:22;35.22;;;9.43;;
63005;SDS011;53704;52.532;6.426;2023-07-02T02:18:48;21.90;;;9.52;;
63005;SDS011;53704;52.532;6.426;2023-07-02T02:21:16;24.55;;;9.10;;
63005;SDS011;53704;52.532;6.426;2023-07-02T02:23:42;27.55;;;9.32;;
63005;SDS011;53704;52.532;6.426;2023-07-02T02:26:08;31.20;;;9.02;;
63005;SDS011;53704;52.532;6.426;2023-07-02T02:28:33;29.73;;;8.80;;
63005;SDS011;53704;52.532;6.426;2023-07-02T02:30:59;25.67;;;9.10;;
63005;SDS011;53704;52.532;6.426;2023-07-02T02:33:24;28.73;;;10.15;;
63005;SDS011;53704;52.532;6.426;2023-07-02T02:35:49;28.20;;;9.52;;
63005;SDS011;53704;52.532;6.426;2023-07-02T02:38:15;23.70;;;8.88;;
63005;SDS011;53704;52.532;6.426;2023-07-02T02:40:40;35.60;;;9.68;;
63005;SDS011;53704;52.532;6.426;2023-07-02T02:43:06;26.98;;;9.25;;
63005;SDS011;53704;52.532;6.426;2023-07-02T02:45:31;26.33;;;10.07;;
63005;SDS011;53704;52.532;6.426;2023-07-02T02:47:57;30.48;;;9.75;;
63005;SDS011;53704;52.532;6.426;2023-07-02T02:50:22;23.70;;;9.05;;
63005;SDS011;53704;52.532;6.426;2023-07-02T02:52:48;23.98;;;8.68;;
63005;SDS011;53704;52.532;6.426;2023-07-02T02:55:13;24.15;;;8.68;;
63005;SDS011;53704;52.532;6.426;2023-07-02T02:57:39;18.27;;;8.90;;
63005;SDS011;53704;52.532;6.426;2023-07-02T03:00:04;25.70;;;9.73;;
63005;SDS011;53704;52.532;6.426;2023-07-02T03:02:32;22.63;;;8.73;;
63005;SDS011;53704;52.532;6.426;2023-07-02T03:04:58;24.25;;;8.75;;
63005;SDS011;53704;52.532;6.426;2023-07-02T03:07:27;20.65;;;9.05;;
63005;SDS011;53704;52.532;6.426;2023-07-02T03:09:53;29.05;;;9.05;;
63005;SDS011;53704;52.532;6.426;2023-07-02T03:12:19;18.23;;;8.35;;
63005;SDS011;53704;52.532;6.426;2023-07-02T03:14:44;35.78;;;9.88;;
63005;SDS011;53704;52.532;6.426;2023-07-02T03:17:09;29.45;;;9.48;;
63005;SDS011;53704;52.532;6.426;2023-07-02T03:19:35;23.75;;;8.35;;
63005;SDS011;53704;52.532;6.426;2023-07-02T03:22:00;22.33;;;8.63;;
63005;SDS011;53704;52.532;6.426;2023-07-02T03:24:26;19.33;;;9.07;;
63005;SDS011;53704;52.532;6.426;2023-07-02T03:26:51;27.00;;;9.48;;
63005;SDS011;53704;52.532;6.426;2023-07-02T03:29:17;30.58;;;9.00;;
63005;SDS011;53704;52.532;6.426;2023-07-02T03:31:44;28.65;;;9.90;;
63005;SDS011;53704;52.532;6.426;2023-07-02T03:34:10;22.85;;;9.68;;
63005;SDS011;53704;52.532;6.426;2023-07-02T03:36:36;21.65;;;9.00;;
63005;SDS011;53704;52.532;6.426;2023-07-02T03:39:02;26.05;;;9.88;;
63005;SDS011;53704;52.532;6.426;2023-07-02T03:41:28;30.50;;;9.02;;
63005;SDS011;53704;52.532;6.426;2023-07-02T03:43:54;27.35;;;8.95;;
63005;SDS011;53704;52.532;6.426;2023-07-02T03:46:19;28.52;;;9.15;;
63005;SDS011;53704;52.532;6.426;2023-07-02T03:48:45;26.60;;;9.52;;
63005;SDS011;53704;52.532;6.426;2023-07-02T03:51:10;19.85;;;9.13;;
63005;SDS011;53704;52.532;6.426;2023-07-02T03:53:39;29.05;;;9.18;;
63005;SDS011;53704;52.532;6.426;2023-07-02T03:56:05;37.17;;;9.75;;
63005;SDS011;53704;52.532;6.426;2023-07-02T03:58:30;23.67;;;9.20;;
63005;SDS011;53704;52.532;6.426;2023-07-02T04:00:56;25.10;;;9.57;;
63005;SDS011;53704;52.532;6.426;2023-07-02T04:03:21;26.85;;;8.98;;
63005;SDS011;53704;52.532;6.426;2023-07-02T04:05:47;24.75;;;8.85;;
63005;SDS011;53704;52.532;6.426;2023-07-02T04:08:12;28.25;;;9.07;;
63005;SDS011;53704;52.532;6.426;2023-07-02T04:10:37;30.80;;;9.77;;
63005;SDS011;53704;52.532;6.426;2023-07-02T04:13:03;34.40;;;10.10;;
63005;SDS011;53704;52.532;6.426;2023-07-02T04:15:29;31.05;;;9.57;;
63005;SDS011;53704;52.532;6.426;2023-07-02T04:17:54;28.92;;;10.38;;
63005;SDS011;53704;52.532;6.426;2023-07-02T04:20:20;23.85;;;9.00;;
63005;SDS011;53704;52.532;6.426;2023-07-02T04:22:45;21.83;;;8.88;;
63005;SDS011;53704;52.532;6.426;2023-07-02T04:25:12;29.92;;;9.75;;
63005;SDS011;53704;52.532;6.426;2023-07-02T04:27:40;33.38;;;10.13;;
63005;SDS011;53704;52.532;6.426;2023-07-02T04:30:07;30.70;;;10.40;;
63005;SDS011;53704;52.532;6.426;2023-07-02T04:32:33;25.80;;;9.45;;
63005;SDS011;53704;52.532;6.426;2023-07-02T04:34:59;27.48;;;10.02;;
63005;SDS011;53704;52.532;6.426;2023-07-02T04:37:24;35.35;;;10.13;;
63005;SDS011;53704;52.532;6.426;2023-07-02T04:39:50;30.17;;;9.18;;
63005;SDS011;53704;52.532;6.426;2023-07-02T04:42:15;34.28;;;11.65;;
63005;SDS011;53704;52.532;6.426;2023-07-02T04:44:40;29.33;;;8.93;;
63005;SDS011;53704;52.532;6.426;2023-07-02T04:47:08;39.45;;;10.07;;
63005;SDS011;53704;52.532;6.426;2023-07-02T04:49:33;32.85;;;12.30;;
63005;SDS011;53704;52.532;6.426;2023-07-02T04:51:59;31.63;;;10.70;;
63005;SDS011;53704;52.532;6.426;2023-07-02T04:54:25;34.83;;;10.20;;
63005;SDS011;53704;52.532;6.426;2023-07-02T04:56:50;28.45;;;10.07;;
63005;SDS011;53704;52.532;6.426;2023-07-02T04:59:16;37.35;;;9.95;;
63005;SDS011;53704;52.532;6.426;2023-07-02T05:01:41;34.72;;;10.07;;
63005;SDS011;53704;52.532;6.426;2023-07-02T05:04:09;39.47;;;11.07;;
63005;SDS011;53704;52.532;6.426;2023-07-02T05:06:36;37.38;;;10.27;;
63005;SDS011;53704;52.532;6.426;2023-07-02T05:09:02;28.73;;;10.10;;
63005;SDS011;53704;52.532;6.426;2023-07-02T05:11:27;29.15;;;9.88;;
63005;SDS011;53704;52.532;6.426;2023-07-02T05:13:53;28.42;;;9.95;;
63005;SDS011;53704;52.532;6.426;2023-07-02T05:16:18;26.20;;;9.75;;
63005;SDS011;53704;52.532;6.426;2023-07-02T05:18:44;29.92;;;9.82;;
63005;SDS011;53704;52.532;6.426;2023-07-02T05:21:10;33.65;;;10.48;;
63005;SDS011;53704;52.532;6.426;2023-07-02T05:23:36;28.10;;;9.57;;
63005;SDS011;53704;52.532;6.426;2023-07-02T05:26:02;31.70;;;9.85;;
63005;SDS011;53704;52.532;6.426;2023-07-02T05:28:27;31.42;;;11.15;;
63005;SDS011;53704;52.532;6.426;2023-07-02T05:30:53;30.55;;;9.77;;
63005;SDS011;53704;52.532;6.426;2023-07-02T05:33:18;30.63;;;10.35;;
63005;SDS011;53704;52.532;6.426;2023-07-02T05:35:43;21.02;;;9.68;;
63005;SDS011;53704;52.532;6.426;2023-07-02T05:38:11;29.60;;;9.95;;
63005;SDS011;53704;52.532;6.426;2023-07-02T05:40:36;30.33;;;9.93;;
63005;SDS011;53704;52.532;6.426;2023-07-02T05:43:02;38.17;;;11.20;;
63005;SDS011;53704;52.532;6.426;2023-07-02T05:45:28;29.63;;;10.43;;
63005;SDS011;53704;52.532;6.426;2023-07-02T05:47:54;33.67;;;9.98;;
63005;SDS011;53704;52.532;6.426;2023-07-02T05:50:19;29.67;;;9.32;;
63005;SDS011;53704;52.532;6.426;2023-07-02T05:52:45;26.77;;;9.27;;
63005;SDS011;53704;52.532;6.426;2023-07-02T05:55:11;37.25;;;10.32;;
63005;SDS011;53704;52.532;6.426;2023-07-02T05:57:37;30.35;;;11.07;;
63005;SDS011;53704;52.532;6.426;2023-07-02T06:00:04;37.58;;;10.68;;
63005;SDS011;53704;52.532;6.426;2023-07-02T06:02:30;38.47;;;10.77;;
63005;SDS011;53704;52.532;6.426;2023-07-02T06:04:56;40.15;;;10.50;;
63005;SDS011;53704;52.532;6.426;2023-07-02T06:07:22;33.65;;;11.00;;
63005;SDS011;53704;52.532;6.426;2023-07-02T06:09:47;30.20;;;10.52;;
63005;SDS011;53704;52.532;6.426;2023-07-02T06:12:13;34.67;;;10.30;;
63005;SDS011;53704;52.532;6.426;2023-07-02T06:14:38;32.22;;;11.70;;
63005;SDS011;53704;52.532;6.426;2023-07-02T06:17:03;36.00;;;11.23;;
63005;SDS011;53704;52.532;6.426;2023-07-02T06:19:31;38.88;;;12.00;;
63005;SDS011;53704;52.532;6.426;2023-07-02T06:21:57;33.67;;;10.13;;
63005;SDS011;53704;52.532;6.426;2023-07-02T06:24:22;48.45;;;11.07;;
63005;SDS011;53704;52.532;6.426;2023-07-02T06:26:48;45.15;;;11.43;;
63005;SDS011;53704;52.532;6.426;2023-07-02T06:29:13;37.88;;;10.82;;
63005;SDS011;53704;52.532;6.426;2023-07-02T06:31:39;33.25;;;11.10;;
63005;SDS011;53704;52.532;6.426;2023-07-02T06:34:04;38.35;;;11.18;;
63005;SDS011;53704;52.532;6.426;2023-07-02T06:36:29;33.03;;;11.48;;
63005;SDS011;53704;52.532;6.426;2023-07-02T06:38:55;35.58;;;10.75;;
63005;SDS011;53704;52.532;6.426;2023-07-02T06:41:20;36.45;;;10.73;;
63005;SDS011;53704;52.532;6.426;2023-07-02T06:43:46;34.20;;;9.48;;
63005;SDS011;53704;52.532;6.426;2023-07-02T06:46:11;31.95;;;10.60;;
63005;SDS011;53704;52.532;6.426;2023-07-02T06:48:37;32.65;;;10.18;;
63005;SDS011;53704;52.532;6.426;2023-07-02T06:51:02;27.85;;;10.00;;
63005;SDS011;53704;52.532;6.426;2023-07-02T06:53:28;29.83;;;10.43;;
63005;SDS011;53704;52.532;6.426;2023-07-02T06:55:53;27.98;;;9.80;;
63005;SDS011;53704;52.532;6.426;2023-07-02T06:58:19;26.77;;;8.75;;
63005;SDS011;53704;52.532;6.426;2023-07-02T07:00:44;29.30;;;9.77;;
63005;SDS011;53704;52.532;6.426;2023-07-02T07:03:10;23.85;;;9.77;;
63005;SDS011;53704;52.532;6.426;2023-07-02T07:05:35;31.83;;;9.07;;
63005;SDS011;53704;52.532;6.426;2023-07-02T07:08:01;34.92;;;10.00;;
63005;SDS011;53704;52.532;6.426;2023-07-02T07:10:26;25.55;;;9.20;;
63005;SDS011;53704;52.532;6.426;2023-07-02T07:12:52;28.35;;;9.13;;
63005;SDS011;53704;52.532;6.426;2023-07-02T07:15:17;33.53;;;9.48;;
63005;SDS011;53704;52.532;6.426;2023-07-02T07:17:43;28.20;;;8.70;;
63005;SDS011;53704;52.532;6.426;2023-07-02T07:20:08;35.33;;;9.60;;
63005;SDS011;53704;52.532;6.426;2023-07-02T07:22:34;31.67;;;9.32;;
63005;SDS011;53704;52.532;6.426;2023-07-02T07:24:59;25.67;;;9.15;;
63005;SDS011;53704;52.532;6.426;2023-07-02T07:27:25;26.10;;;8.98;;
63005;SDS011;53704;52.532;6.426;2023-07-02T07:29:50;31.00;;;8.95;;
63005;SDS011;53704;52.532;6.426;2023-07-02T07:32:16;28.98;;;10.32;;
63005;SDS011;53704;52.532;6.426;2023-07-02T07:34:42;35.85;;;9.50;;
63005;SDS011;53704;52.532;6.426;2023-07-02T07:37:08;23.27;;;8.57;;
63005;SDS011;53704;52.532;6.426;2023-07-02T07:39:33;24.58;;;8.27;;
63005;SDS011;53704;52.532;6.426;2023-07-02T07:41:58;28.58;;;8.93;;
63005;SDS011;53704;52.532;6.426;2023-07-02T07:44:24;23.08;;;8.18;;
63005;SDS011;53704;52.532;6.426;2023-07-02T07:46:54;25.50;;;8.85;;
63005;SDS011;53704;52.532;6.426;2023-07-02T07:49:20;26.15;;;8.43;;
63005;SDS011;53704;52.532;6.426;2023-07-02T07:51:46;30.25;;;7.60;;
63005;SDS011;53704;52.532;6.426;2023-07-02T07:54:12;26.33;;;9.20;;
63005;SDS011;53704;52.532;6.426;2023-07-02T07:56:38;22.52;;;8.70;;
63005;SDS011;53704;52.532;6.426;2023-07-02T07:59:03;26.95;;;8.52;;
63005;SDS011;53704;52.532;6.426;2023-07-02T08:01:29;27.75;;;8.68;;
63005;SDS011;53704;52.532;6.426;2023-07-02T08:03:54;26.15;;;8.18;;
63005;SDS011;53704;52.532;6.426;2023-07-02T08:06:20;21.23;;;7.90;;
63005;SDS011;53704;52.532;6.426;2023-07-02T08:08:45;29.90;;;7.97;;
63005;SDS011;53704;52.532;6.426;2023-07-02T08:11:11;24.33;;;7.88;;
63005;SDS011;53704;52.532;6.426;2023-07-02T08:13:37;24.50;;;8.20;;
63005;SDS011;53704;52.532;6.426;2023-07-02T08:16:02;15.70;;;6.93;;
63005;SDS011;53704;52.532;6.426;2023-07-02T08:18:28;19.77;;;7.65;;
63005;SDS011;53704;52.532;6.426;2023-07-02T08:20:53;15.02;;;6.93;;
63005;SDS011;53704;52.532;6.426;2023-07-02T08:23:19;20.42;;;7.15;;
63005;SDS011;53704;52.532;6.426;2023-07-02T08:25:44;26.35;;;6.80;;
63005;SDS011;53704;52.532;6.426;2023-07-02T08:28:10;16.48;;;6.95;;
63005;SDS011;53704;52.532;6.426;2023-07-02T08:30:35;24.13;;;7.60;;
63005;SDS011;53704;52.532;6.426;2023-07-02T08:33:01;23.52;;;6.57;;
63005;SDS011;53704;52.532;6.426;2023-07-02T08:35:26;30.80;;;7.47;;
63005;SDS011;53704;52.532;6.426;2023-07-02T08:37:52;19.23;;;7.13;;
63005;SDS011;53704;52.532;6.426;2023-07-02T08:40:20;20.13;;;6.65;;
63005;SDS011;53704;52.532;6.426;2023-07-02T08:42:46;18.65;;;6.60;;
63005;SDS011;53704;52.532;6.426;2023-07-02T08:45:13;23.38;;;7.45;;
63005;SDS011;53704;52.532;6.426;2023-07-02T08:47:41;23.90;;;6.80;;
63005;SDS011;53704;52.532;6.426;2023-07-02T08:50:07;16.17;;;6.97;;
63005;SDS011;53704;52.532;6.426;2023-07-02T08:52:32;27.00;;;6.30;;
63005;SDS011;53704;52.532;6.426;2023-07-02T08:54:59;28.80;;;7.85;;
63005;SDS011;53704;52.532;6.426;2023-07-02T08:57:24;18.63;;;5.70;;
63005;SDS011;53704;52.532;6.426;2023-07-02T08:59:50;15.05;;;6.80;;
63005;SDS011;53704;52.532;6.426;2023-07-02T09:02:16;15.55;;;5.95;;
63005;SDS011;53704;52.532;6.426;2023-07-02T09:04:42;15.73;;;6.03;;
63005;SDS011;53704;52.532;6.426;2023-07-02T09:07:08;15.88;;;5.95;;
63005;SDS011;53704;52.532;6.426;2023-07-02T09:09:48;11.98;;;5.60;;
63005;SDS011;53704;52.532;6.426;2023-07-02T09:12:25;24.83;;;6.85;;
63005;SDS011;53704;52.532;6.426;2023-07-02T09:14:55;15.65;;;6.15;;
63005;SDS011;53704;52.532;6.426;2023-07-02T09:17:28;14.45;;;5.55;;
63005;SDS011;53704;52.532;6.426;2023-07-02T09:19:55;14.43;;;5.28;;
63005;SDS011;53704;52.532;6.426;2023-07-02T09:22:20;11.43;;;5.63;;
63005;SDS011;53704;52.532;6.426;2023-07-02T09:25:19;14.80;;;5.68;;
63005;SDS011;53704;52.532;6.426;2023-07-02T09:27:41;12.70;;;4.68;;
63005;SDS011;53704;52.532;6.426;2023-07-02T09:32:34;12.88;;;3.65;;
63005;SDS011;53704;52.532;6.426;2023-07-02T09:35:00;21.15;;;4.70;;
63005;SDS011;53704;52.532;6.426;2023-07-02T09:37:25;11.32;;;4.20;;
63005;SDS011;53704;52.532;6.426;2023-07-02T09:39:51;9.05;;;5.20;;
63005;SDS011;53704;52.532;6.426;2023-07-02T09:42:20;14.90;;;5.03;;
63005;SDS011;53704;52.532;6.426;2023-07-02T09:44:46;9.25;;;4.63;;
63005;SDS011;53704;52.532;6.426;2023-07-02T09:47:12;16.80;;;5.40;;
63005;SDS011;53704;52.532;6.426;2023-07-02T09:49:59;23.90;;;5.45;;
63005;SDS011;53704;52.532;6.426;2023-07-02T09:52:30;7.43;;;5.13;;
63005;SDS011;53704;52.532;6.426;2023-07-02T09:54:56;12.93;;;6.03;;
63005;SDS011;53704;52.532;6.426;2023-07-02T09:57:22;8.73;;;5.35;;
63005;SDS011;53704;52.532;6.426;2023-07-02T09:59:48;17.90;;;6.05;;
63005;SDS011;53704;52.532;6.426;2023-07-02T10:02:15;14.10;;;6.20;;
63005;SDS011;53704;52.532;6.426;2023-07-02T10:07:09;16.67;;;6.38;;
63005;SDS011;53704;52.532;6.426;2023-07-02T10:09:40;16.92;;;5.40;;
63005;SDS011;53704;52.532;6.426;2023-07-02T10:12:15;17.42;;;5.07;;
63005;SDS011;53704;52.532;6.426;2023-07-02T10:14:48;10.98;;;5.15;;
63005;SDS011;53704;52.532;6.426;2023-07-02T10:17:24;13.18;;;5.30;;
63005;SDS011;53704;52.532;6.426;2023-07-02T10:20:08;11.00;;;5.97;;
63005;SDS011;53704;52.532;6.426;2023-07-02T10:22:49;19.85;;;5.93;;
63005;SDS011;53704;52.532;6.426;2023-07-02T10:25:32;12.77;;;5.85;;
63005;SDS011;53704;52.532;6.426;2023-07-02T10:28:23;14.55;;;6.07;;
63005;SDS011;53704;52.532;6.426;2023-07-02T10:30:51;16.45;;;6.20;;
63005;SDS011;53704;52.532;6.426;2023-07-02T10:33:18;8.63;;;5.30;;
63005;SDS011;53704;52.532;6.426;2023-07-02T10:35:45;19.95;;;6.47;;
63005;SDS011;53704;52.532;6.426;2023-07-02T10:38:18;13.30;;;5.13;;
63005;SDS011;53704;52.532;6.426;2023-07-02T10:40:45;8.38;;;4.38;;
63005;SDS011;53704;52.532;6.426;2023-07-02T10:43:11;15.15;;;5.28;;
63005;SDS011;53704;52.532;6.426;2023-07-02T10:45:37;14.13;;;4.43;;
63005;SDS011;53704;52.532;6.426;2023-07-02T10:48:03;9.80;;;4.15;;
63005;SDS011;53704;52.532;6.426;2023-07-02T10:50:30;11.13;;;5.03;;
63005;SDS011;53704;52.532;6.426;2023-07-02T10:52:57;15.60;;;4.70;;
63005;SDS011;53704;52.532;6.426;2023-07-02T10:55:23;15.98;;;4.53;;
63005;SDS011;53704;52.532;6.426;2023-07-02T10:57:50;11.60;;;4.35;;
63005;SDS011;53704;52.532;6.426;2023-07-02T11:00:26;12.82;;;4.50;;
63005;SDS011;53704;52.532;6.426;2023-07-02T11:02:52;10.52;;;4.38;;
63005;SDS011;53704;52.532;6.426;2023-07-02T11:05:17;11.48;;;4.53;;
63005;SDS011;53704;52.532;6.426;2023-07-02T11:07:43;11.07;;;4.65;;
63005;SDS011;53704;52.532;6.426;2023-07-02T11:10:09;9.30;;;4.13;;
63005;SDS011;53704;52.532;6.426;2023-07-02T11:12:41;8.07;;;4.63;;
63005;SDS011;53704;52.532;6.426;2023-07-02T11:15:08;13.90;;;4.75;;
63005;SDS011;53704;52.532;6.426;2023-07-02T11:17:33;17.10;;;4.82;;
63005;SDS011;53704;52.532;6.426;2023-07-02T11:19:59;14.52;;;5.20;;
63005;SDS011;53704;52.532;6.426;2023-07-02T11:22:34;13.07;;;4.60;;
63005;SDS011;53704;52.532;6.426;2023-07-02T11:25:13;9.63;;;4.65;;
63005;SDS011;53704;52.532;6.426;2023-07-02T11:27:42;14.88;;;5.18;;
63005;SDS011;53704;52.532;6.426;2023-07-02T11:30:09;12.68;;;4.38;;
63005;SDS011;53704;52.532;6.426;2023-07-02T11:32:51;11.88;;;4.53;;
63005;SDS011;53704;52.532;6.426;2023-07-02T11:35:18;4.35;;;3.83;;
63005;SDS011;53704;52.532;6.426;2023-07-02T11:37:44;13.32;;;4.22;;
63005;SDS011;53704;52.532;6.426;2023-07-02T11:40:11;6.93;;;3.92;;
63005;SDS011;53704;52.532;6.426;2023-07-02T11:42:38;10.48;;;4.45;;
63005;SDS011;53704;52.532;6.426;2023-07-02T11:45:04;8.65;;;5.03;;
63005;SDS011;53704;52.532;6.426;2023-07-02T11:47:32;15.07;;;4.30;;
63005;SDS011;53704;52.532;6.426;2023-07-02T11:49:58;5.57;;;4.05;;
63005;SDS011;53704;52.532;6.426;2023-07-02T11:52:24;10.02;;;3.83;;
63005;SDS011;53704;52.532;6.426;2023-07-02T11:54:50;4.38;;;3.67;;
63005;SDS011;53704;52.532;6.426;2023-07-02T11:57:15;9.80;;;3.95;;
63005;SDS011;53704;52.532;6.426;2023-07-02T11:59:41;9.25;;;4.28;;
63005;SDS011;53704;52.532;6.426;2023-07-02T12:02:07;11.75;;;3.58;;
63005;SDS011;53704;52.532;6.426;2023-07-02T12:04:32;14.00;;;4.35;;
63005;SDS011;53704;52.532;6.426;2023-07-02T12:06:58;7.47;;;3.75;;
63005;SDS011;53704;52.532;6.426;2023-07-02T12:09:26;7.32;;;3.72;;
63005;SDS011;53704;52.532;6.426;2023-07-02T12:11:52;6.45;;;3.40;;
63005;SDS011;53704;52.532;6.426;2023-07-02T12:14:18;11.32;;;3.13;;
63005;SDS011;53704;52.532;6.426;2023-07-02T12:16:43;5.20;;;2.83;;
63005;SDS011;53704;52.532;6.426;2023-07-02T12:19:08;8.20;;;3.45;;
63005;SDS011;53704;52.532;6.426;2023-07-02T12:21:35;5.60;;;3.47;;
63005;SDS011;53704;52.532;6.426;2023-07-02T12:24:00;7.68;;;4.00;;
63005;SDS011;53704;52.532;6.426;2023-07-02T12:26:26;6.05;;;3.50;;
63005;SDS011;53704;52.532;6.426;2023-07-02T12:28:51;8.65;;;3.28;;
63005;SDS011;53704;52.532;6.426;2023-07-02T12:31:17;9.80;;;3.95;;
63005;SDS011;53704;52.532;6.426;2023-07-02T12:33:42;11.13;;;3.92;;
63005;SDS011;53704;52.532;6.426;2023-07-02T12:36:08;4.82;;;3.95;;
63005;SDS011;53704;52.532;6.426;2023-07-02T12:38:34;9.13;;;3.90;;
63005;SDS011;53704;52.532;6.426;2023-07-02T12:41:00;9.98;;;4.57;;
63005;SDS011;53704;52.532;6.426;2023-07-02T12:43:25;11.13;;;4.38;;
63005;SDS011;53704;52.532;6.426;2023-07-02T12:45:50;8.90;;;4.07;;
63005;SDS011;53704;52.532;6.426;2023-07-02T12:48:16;23.17;;;4.05;;
63005;SDS011;53704;52.532;6.426;2023-07-02T12:50:41;11.10;;;4.30;;
63005;SDS011;53704;52.532;6.426;2023-07-02T12:53:17;11.25;;;4.50;;
63005;SDS011;53704;52.532;6.426;2023-07-02T12:55:43;10.27;;;3.72;;
63005;SDS011;53704;52.532;6.426;2023-07-02T12:58:08;8.60;;;4.05;;
63005;SDS011;53704;52.532;6.426;2023-07-02T13:00:34;11.90;;;4.13;;
63005;SDS011;53704;52.532;6.426;2023-07-02T13:02:59;21.88;;;4.90;;
63005;SDS011;53704;52.532;6.426;2023-07-02T13:05:24;18.48;;;4.95;;
63005;SDS011;53704;52.532;6.426;2023-07-02T13:07:50;11.43;;;4.63;;
63005;SDS011;53704;52.532;6.426;2023-07-02T13:10:15;7.88;;;4.32;;
63005;SDS011;53704;52.532;6.426;2023-07-02T13:12:42;10.50;;;5.18;;
63005;SDS011;53704;52.532;6.426;2023-07-02T13:15:08;13.07;;;4.70;;
63005;SDS011;53704;52.532;6.426;2023-07-02T13:17:34;16.63;;;4.63;;
63005;SDS011;53704;52.532;6.426;2023-07-02T13:19:59;11.73;;;5.00;;
63005;SDS011;53704;52.532;6.426;2023-07-02T13:22:25;8.55;;;4.53;;
63005;SDS011;53704;52.532;6.426;2023-07-02T13:24:50;11.75;;;4.78;;
63005;SDS011;53704;52.532;6.426;2023-07-02T13:27:16;5.30;;;4.78;;
63005;SDS011;53704;52.532;6.426;2023-07-02T13:29:43;7.75;;;4.72;;
63005;SDS011;53704;52.532;6.426;2023-07-02T13:32:08;10.60;;;5.13;;
63005;SDS011;53704;52.532;6.426;2023-07-02T13:34:34;12.23;;;5.60;;
63005;SDS011;53704;52.532;6.426;2023-07-02T13:36:59;13.77;;;5.35;;
63005;SDS011;53704;52.532;6.426;2023-07-02T13:39:27;8.55;;;4.93;;
63005;SDS011;53704;52.532;6.426;2023-07-02T13:41:53;7.10;;;4.25;;
63005;SDS011;53704;52.532;6.426;2023-07-02T13:44:18;12.40;;;5.05;;
63005;SDS011;53704;52.532;6.426;2023-07-02T13:46:44;4.85;;;4.13;;
63005;SDS011;53704;52.532;6.426;2023-07-02T13:49:10;10.43;;;4.80;;
63005;SDS011;53704;52.532;6.426;2023-07-02T13:51:35;14.45;;;4.88;;
63005;SDS011;53704;52.532;6.426;2023-07-02T13:54:01;8.20;;;4.28;;
63005;SDS011;53704;52.532;6.426;2023-07-02T13:56:27;10.48;;;4.53;;
63005;SDS011;53704;52.532;6.426;2023-07-02T14:01:21;9.65;;;4.47;;
63005;SDS011;53704;52.532;6.426;2023-07-02T14:03:47;6.28;;;4.97;;
63005;SDS011;53704;52.532;6.426;2023-07-02T14:06:12;4.63;;;4.03;;
63005;SDS011;53704;52.532;6.426;2023-07-02T14:08:37;6.15;;;4.25;;
63005;SDS011;53704;52.532;6.426;2023-07-02T14:11:03;6.32;;;4.07;;
63005;SDS011;53704;52.532;6.426;2023-07-02T14:13:28;13.18;;;4.43;;
63005;SDS011;53704;52.532;6.426;2023-07-02T14:15:54;9.45;;;4.80;;
63005;SDS011;53704;52.532;6.426;2023-07-02T14:18:19;12.02;;;4.47;;
63005;SDS011;53704;52.532;6.426;2023-07-02T14:20:44;15.00;;;4.20;;
63005;SDS011;53704;52.532;6.426;2023-07-02T14:23:10;8.68;;;4.47;;
63005;SDS011;53704;52.532;6.426;2023-07-02T14:25:36;8.07;;;4.68;;
63005;SDS011;53704;52.532;6.426;2023-07-02T14:28:01;7.00;;;4.43;;
63005;SDS011;53704;52.532;6.426;2023-07-02T14:30:27;9.55;;;4.15;;
63005;SDS011;53704;52.532;6.426;2023-07-02T14:32:52;11.25;;;4.30;;
63005;SDS011;53704;52.532;6.426;2023-07-02T14:35:18;8.25;;;3.92;;
63005;SDS011;53704;52.532;6.426;2023-07-02T14:37:47;11.63;;;4.55;;
63005;SDS011;53704;52.532;6.426;2023-07-02T14:40:12;11.30;;;4.45;;